sensor_id;sensor_type;location;lat;lon;timestamp;temperature;humidity
2647;DHT22;1333;50.958;6.770;2023-08-20T00:00:36;21.20;99.90
2647;DHT22;1333;50.958;6.770;2023-08-20T00:03:19;21.20;99.90
2647;DHT22;1333;50.958;6.770;2023-08-20T00:05:45;21.10;99.90
2647;DHT22;1333;50.958;6.770;2023-08-20T00:08:11;21.10;99.90
2647;DHT22;1333;50.958;6.770;2023-08-20T00:10:36;21.10;99.90
2647;DHT22;1333;50.958;6.770;2023-08-20T00:13:02;21.10;99.90
2647;DHT22;1333;50.958;6.770;2023-08-20T00:15:29;21.10;99.90
2647;DHT22;1333;50.958;6.770;2023-08-20T00:17:55;21.10;99.90
2647;DHT22;1333;50.958;6.770;2023-08-20T00:20:21;21.20;99.90
2647;DHT22;1333;50.958;6.770;2023-08-20T00:22:47;21.30;99.90
2647;DHT22;1333;50.958;6.770;2023-08-20T00:25:14;21.30;99.90
2647;DHT22;1333;50.958;6.770;2023-08-20T00:27:41;21.30;99.90
2647;DHT22;1333;50.958;6.770;2023-08-20T00:30:07;21.40;99.90
2647;DHT22;1333;50.958;6.770;2023-08-20T00:32:34;21.50;99.90
2647;DHT22;1333;50.958;6.770;2023-08-20T00:35:00;21.50;99.90
2647;DHT22;1333;50.958;6.770;2023-08-20T00:37:26;21.50;99.90
2647;DHT22;1333;50.958;6.770;2023-08-20T00:39:52;21.50;99.90
2647;DHT22;1333;50.958;6.770;2023-08-20T00:42:17;21.50;99.90
2647;DHT22;1333;50.958;6.770;2023-08-20T00:44:43;21.50;99.90
2647;DHT22;1333;50.958;6.770;2023-08-20T00:47:13;21.60;99.90
2647;DHT22;1333;50.958;6.770;2023-08-20T00:49:39;21.50;99.90
2647;DHT22;1333;50.958;6.770;2023-08-20T00:52:07;21.50;99.90
2647;DHT22;1333;50.958;6.770;2023-08-20T00:54:33;21.50;99.90
2647;DHT22;1333;50.958;6.770;2023-08-20T00:56:59;21.50;99.90
2647;DHT22;1333;50.958;6.770;2023-08-20T00:59:27;21.50;99.90
2647;DHT22;1333;50.958;6.770;2023-08-20T01:01:53;21.50;99.90
2647;DHT22;1333;50.958;6.770;2023-08-20T01:04:19;21.40;99.90
2647;DHT22;1333;50.958;6.770;2023-08-20T01:07:24;21.30;99.90
2647;DHT22;1333;50.958;6.770;2023-08-20T01:12:41;21.10;99.90
2647;DHT22;1333;50.958;6.770;2023-08-20T01:15:09;21.00;99.90
2647;DHT22;1333;50.958;6.770;2023-08-20T01:17:39;21.00;99.90
2647;DHT22;1333;50.958;6.770;2023-08-20T01:20:06;20.90;99.90
2647;DHT22;1333;50.958;6.770;2023-08-20T01:22:52;20.90;99.90
2647;DHT22;1333;50.958;6.770;2023-08-20T01:28:29;20.70;99.90
2647;DHT22;1333;50.958;6.770;2023-08-20T01:30:57;20.70;99.90
2647;DHT22;1333;50.958;6.770;2023-08-20T01:33:23;20.60;99.90
2647;DHT22;1333;50.958;6.770;2023-08-20T01:35:50;20.60;99.90
2647;DHT22;1333;50.958;6.770;2023-08-20T01:38:16;20.60;99.90
2647;DHT22;1333;50.958;6.770;2023-08-20T01:40:42;20.50;99.90
2647;DHT22;1333;50.958;6.770;2023-08-20T01:43:07;20.50;99.90
2647;DHT22;1333;50.958;6.770;2023-08-20T01:45:33;20.50;99.90
2647;DHT22;1333;50.958;6.770;2023-08-20T01:47:59;20.50;99.90
2647;DHT22;1333;50.958;6.770;2023-08-20T01:50:24;20.50;99.90
2647;DHT22;1333;50.958;6.770;2023-08-20T01:52:50;20.50;99.90
2647;DHT22;1333;50.958;6.770;2023-08-20T01:55:16;20.40;99.90
2647;DHT22;1333;50.958;6.770;2023-08-20T01:57:41;20.40;99.90
2647;DHT22;1333;50.958;6.770;2023-08-20T02:00:07;20.30;99.90
2647;DHT22;1333;50.958;6.770;2023-08-20T02:02:33;20.30;99.90
2647;DHT22;1333;50.958;6.770;2023-08-20T02:05:00;20.30;99.90
2647;DHT22;1333;50.958;6.770;2023-08-20T02:07:25;20.30;99.90
2647;DHT22;1333;50.958;6.770;2023-08-20T02:09:51;20.30;99.90
2647;DHT22;1333;50.958;6.770;2023-08-20T02:12:17;20.30;99.90
2647;DHT22;1333;50.958;6.770;2023-08-20T02:14:42;20.30;99.90
2647;DHT22;1333;50.958;6.770;2023-08-20T02:17:08;20.30;99.90
2647;DHT22;1333;50.958;6.770;2023-08-20T02:19:33;20.30;99.90
2647;DHT22;1333;50.958;6.770;2023-08-20T02:21:59;20.30;99.90
2647;DHT22;1333;50.958;6.770;2023-08-20T02:24:24;20.20;99.90
2647;DHT22;1333;50.958;6.770;2023-08-20T02:26:50;20.20;99.90
2647;DHT22;1333;50.958;6.770;2023-08-20T02:29:16;20.20;99.90
2647;DHT22;1333;50.958;6.770;2023-08-20T02:31:41;20.20;99.90
2647;DHT22;1333;50.958;6.770;2023-08-20T02:34:07;20.20;99.90
2647;DHT22;1333;50.958;6.770;2023-08-20T02:36:32;20.20;99.90
2647;DHT22;1333;50.958;6.770;2023-08-20T02:38:58;20.10;99.90
2647;DHT22;1333;50.958;6.770;2023-08-20T02:41:23;20.20;99.90
2647;DHT22;1333;50.958;6.770;2023-08-20T02:43:49;20.20;99.90
2647;DHT22;1333;50.958;6.770;2023-08-20T02:46:14;20.30;99.90
2647;DHT22;1333;50.958;6.770;2023-08-20T02:48:40;20.40;99.90
2647;DHT22;1333;50.958;6.770;2023-08-20T02:51:05;20.50;99.90
2647;DHT22;1333;50.958;6.770;2023-08-20T02:53:31;20.70;99.90
2647;DHT22;1333;50.958;6.770;2023-08-20T02:55:57;20.80;99.90
2647;DHT22;1333;50.958;6.770;2023-08-20T02:58:22;20.80;99.90
2647;DHT22;1333;50.958;6.770;2023-08-20T03:00:48;20.90;99.90
2647;DHT22;1333;50.958;6.770;2023-08-20T03:03:13;20.90;99.90
2647;DHT22;1333;50.958;6.770;2023-08-20T03:05:39;20.90;99.90
2647;DHT22;1333;50.958;6.770;2023-08-20T03:08:05;20.90;99.90
2647;DHT22;1333;50.958;6.770;2023-08-20T03:10:31;20.90;99.90
2647;DHT22;1333;50.958;6.770;2023-08-20T03:13:01;20.90;99.90
2647;DHT22;1333;50.958;6.770;2023-08-20T03:15:28;21.00;99.90
2647;DHT22;1333;50.958;6.770;2023-08-20T03:17:54;20.90;99.90
2647;DHT22;1333;50.958;6.770;2023-08-20T03:20:19;20.90;99.90
2647;DHT22;1333;50.958;6.770;2023-08-20T03:22:45;20.90;99.90
2647;DHT22;1333;50.958;6.770;2023-08-20T03:25:11;20.90;99.90
2647;DHT22;1333;50.958;6.770;2023-08-20T03:27:36;20.80;99.90
2647;DHT22;1333;50.958;6.770;2023-08-20T03:30:03;20.80;99.90
2647;DHT22;1333;50.958;6.770;2023-08-20T03:32:29;20.80;99.90
2647;DHT22;1333;50.958;6.770;2023-08-20T03:34:54;20.70;99.90
2647;DHT22;1333;50.958;6.770;2023-08-20T03:37:21;20.70;99.90
2647;DHT22;1333;50.958;6.770;2023-08-20T03:39:47;20.70;99.90
2647;DHT22;1333;50.958;6.770;2023-08-20T03:42:12;20.60;99.90
2647;DHT22;1333;50.958;6.770;2023-08-20T03:44:38;20.70;99.90
2647;DHT22;1333;50.958;6.770;2023-08-20T03:47:04;20.70;99.90
2647;DHT22;1333;50.958;6.770;2023-08-20T03:49:30;20.70;99.90
2647;DHT22;1333;50.958;6.770;2023-08-20T03:51:55;20.70;99.90
2647;DHT22;1333;50.958;6.770;2023-08-20T03:54:21;20.70;99.90
2647;DHT22;1333;50.958;6.770;2023-08-20T03:56:46;20.70;99.90
2647;DHT22;1333;50.958;6.770;2023-08-20T03:59:12;20.70;99.90
2647;DHT22;1333;50.958;6.770;2023-08-20T04:01:37;20.70;99.90
2647;DHT22;1333;50.958;6.770;2023-08-20T04:04:03;20.80;99.90
2647;DHT22;1333;50.958;6.770;2023-08-20T04:06:29;20.80;99.90
2647;DHT22;1333;50.958;6.770;2023-08-20T04:08:55;20.80;99.90
2647;DHT22;1333;50.958;6.770;2023-08-20T04:11:20;20.80;99.90
2647;DHT22;1333;50.958;6.770;2023-08-20T04:13:46;20.90;99.90
2647;DHT22;1333;50.958;6.770;2023-08-20T04:16:12;20.90;99.90
2647;DHT22;1333;50.958;6.770;2023-08-20T04:18:38;20.90;99.90
2647;DHT22;1333;50.958;6.770;2023-08-20T04:21:03;20.90;99.90
2647;DHT22;1333;50.958;6.770;2023-08-20T04:23:29;20.80;99.90
2647;DHT22;1333;50.958;6.770;2023-08-20T04:25:54;20.80;99.90
2647;DHT22;1333;50.958;6.770;2023-08-20T04:28:20;20.80;99.90
2647;DHT22;1333;50.958;6.770;2023-08-20T04:30:45;20.80;99.90
2647;DHT22;1333;50.958;6.770;2023-08-20T04:33:11;20.80;99.90
2647;DHT22;1333;50.958;6.770;2023-08-20T04:35:36;20.70;99.90
2647;DHT22;1333;50.958;6.770;2023-08-20T04:38:02;20.80;99.90
2647;DHT22;1333;50.958;6.770;2023-08-20T04:40:28;20.80;99.90
2647;DHT22;1333;50.958;6.770;2023-08-20T04:42:53;20.80;99.90
2647;DHT22;1333;50.958;6.770;2023-08-20T04:45:19;20.80;99.90
2647;DHT22;1333;50.958;6.770;2023-08-20T04:47:45;20.70;99.90
2647;DHT22;1333;50.958;6.770;2023-08-20T04:50:12;20.70;99.90
2647;DHT22;1333;50.958;6.770;2023-08-20T04:52:38;20.70;99.90
2647;DHT22;1333;50.958;6.770;2023-08-20T04:55:04;20.70;99.90
2647;DHT22;1333;50.958;6.770;2023-08-20T04:57:30;20.70;99.90
2647;DHT22;1333;50.958;6.770;2023-08-20T04:59:55;20.70;99.90
2647;DHT22;1333;50.958;6.770;2023-08-20T05:02:21;20.70;99.90
2647;DHT22;1333;50.958;6.770;2023-08-20T05:04:46;20.70;99.90
2647;DHT22;1333;50.958;6.770;2023-08-20T05:07:12;20.70;99.90
2647;DHT22;1333;50.958;6.770;2023-08-20T05:09:37;20.80;99.90
2647;DHT22;1333;50.958;6.770;2023-08-20T05:12:03;20.80;99.90
2647;DHT22;1333;50.958;6.770;2023-08-20T05:14:29;20.90;99.90
2647;DHT22;1333;50.958;6.770;2023-08-20T05:16:55;21.00;99.90
2647;DHT22;1333;50.958;6.770;2023-08-20T05:19:21;21.10;99.90
2647;DHT22;1333;50.958;6.770;2023-08-20T05:21:47;21.30;99.90
2647;DHT22;1333;50.958;6.770;2023-08-20T05:24:12;21.30;99.90
2647;DHT22;1333;50.958;6.770;2023-08-20T05:26:38;21.40;99.90
2647;DHT22;1333;50.958;6.770;2023-08-20T05:29:03;21.50;99.90
2647;DHT22;1333;50.958;6.770;2023-08-20T05:31:29;21.50;99.90
2647;DHT22;1333;50.958;6.770;2023-08-20T05:33:54;21.50;99.90
2647;DHT22;1333;50.958;6.770;2023-08-20T05:36:20;21.50;99.90
2647;DHT22;1333;50.958;6.770;2023-08-20T05:38:46;21.50;99.90
2647;DHT22;1333;50.958;6.770;2023-08-20T05:41:11;21.60;99.90
2647;DHT22;1333;50.958;6.770;2023-08-20T05:43:37;21.70;99.90
2647;DHT22;1333;50.958;6.770;2023-08-20T05:46:03;21.90;99.90
2647;DHT22;1333;50.958;6.770;2023-08-20T05:48:29;22.10;99.90
2647;DHT22;1333;50.958;6.770;2023-08-20T05:50:55;22.30;99.90
2647;DHT22;1333;50.958;6.770;2023-08-20T05:53:22;22.50;99.90
2647;DHT22;1333;50.958;6.770;2023-08-20T05:55:48;22.60;99.90
2647;DHT22;1333;50.958;6.770;2023-08-20T05:58:13;22.60;99.90
2647;DHT22;1333;50.958;6.770;2023-08-20T06:00:39;22.70;99.90
2647;DHT22;1333;50.958;6.770;2023-08-20T06:03:04;22.80;99.90
2647;DHT22;1333;50.958;6.770;2023-08-20T06:05:30;23.10;99.90
2647;DHT22;1333;50.958;6.770;2023-08-20T06:07:56;23.40;99.90
2647;DHT22;1333;50.958;6.770;2023-08-20T06:10:21;23.90;99.90
2647;DHT22;1333;50.958;6.770;2023-08-20T06:12:47;24.50;99.90
2647;DHT22;1333;50.958;6.770;2023-08-20T06:15:13;25.20;99.90
2647;DHT22;1333;50.958;6.770;2023-08-20T06:17:39;26.10;99.90
2647;DHT22;1333;50.958;6.770;2023-08-20T06:20:05;26.90;99.90
2647;DHT22;1333;50.958;6.770;2023-08-20T06:22:33;27.60;99.90
2647;DHT22;1333;50.958;6.770;2023-08-20T06:24:58;28.00;99.90
2647;DHT22;1333;50.958;6.770;2023-08-20T06:27:24;28.20;99.90
2647;DHT22;1333;50.958;6.770;2023-08-20T06:29:49;28.20;99.90
2647;DHT22;1333;50.958;6.770;2023-08-20T06:32:15;28.40;99.90
2647;DHT22;1333;50.958;6.770;2023-08-20T06:34:40;28.70;99.90
2647;DHT22;1333;50.958;6.770;2023-08-20T06:37:06;29.30;99.90
2647;DHT22;1333;50.958;6.770;2023-08-20T06:39:31;30.10;99.90
2647;DHT22;1333;50.958;6.770;2023-08-20T06:41:57;30.60;99.90
2647;DHT22;1333;50.958;6.770;2023-08-20T06:44:22;30.90;99.90
2647;DHT22;1333;50.958;6.770;2023-08-20T06:46:48;31.20;99.90
2647;DHT22;1333;50.958;6.770;2023-08-20T06:49:13;31.80;99.90
2647;DHT22;1333;50.958;6.770;2023-08-20T06:51:39;32.50;99.90
2647;DHT22;1333;50.958;6.770;2023-08-20T06:54:05;33.30;99.90
2647;DHT22;1333;50.958;6.770;2023-08-20T06:56:32;33.90;99.90
2647;DHT22;1333;50.958;6.770;2023-08-20T06:58:57;34.30;96.60
2647;DHT22;1333;50.958;6.770;2023-08-20T07:01:23;34.50;91.90
2647;DHT22;1333;50.958;6.770;2023-08-20T07:03:48;34.50;89.50
2647;DHT22;1333;50.958;6.770;2023-08-20T07:06:14;34.70;87.80
2647;DHT22;1333;50.958;6.770;2023-08-20T07:08:41;35.20;84.90
2647;DHT22;1333;50.958;6.770;2023-08-20T07:11:07;36.00;76.10
2647;DHT22;1333;50.958;6.770;2023-08-20T07:13:33;36.80;70.90
2647;DHT22;1333;50.958;6.770;2023-08-20T07:15:59;37.10;64.50
2647;DHT22;1333;50.958;6.770;2023-08-20T07:18:25;37.00;60.80
2647;DHT22;1333;50.958;6.770;2023-08-20T07:20:51;37.00;59.30
2647;DHT22;1333;50.958;6.770;2023-08-20T07:23:19;37.30;58.30
2647;DHT22;1333;50.958;6.770;2023-08-20T07:25:45;37.60;57.00
2647;DHT22;1333;50.958;6.770;2023-08-20T07:28:12;37.80;56.50
2647;DHT22;1333;50.958;6.770;2023-08-20T07:30:38;37.70;56.40
2647;DHT22;1333;50.958;6.770;2023-08-20T07:33:06;37.30;56.20
2647;DHT22;1333;50.958;6.770;2023-08-20T07:35:31;36.90;56.60
2647;DHT22;1333;50.958;6.770;2023-08-20T07:37:57;36.40;57.30
2647;DHT22;1333;50.958;6.770;2023-08-20T07:40:23;36.40;58.20
2647;DHT22;1333;50.958;6.770;2023-08-20T07:42:49;36.90;58.10
2647;DHT22;1333;50.958;6.770;2023-08-20T07:45:15;37.60;57.40
2647;DHT22;1333;50.958;6.770;2023-08-20T07:47:41;38.20;56.00
2647;DHT22;1333;50.958;6.770;2023-08-20T07:50:06;39.10;54.10
2647;DHT22;1333;50.958;6.770;2023-08-20T07:52:32;40.00;52.40
2647;DHT22;1333;50.958;6.770;2023-08-20T07:54:58;40.00;50.00
2647;DHT22;1333;50.958;6.770;2023-08-20T07:57:24;39.50;49.70
2647;DHT22;1333;50.958;6.770;2023-08-20T07:59:50;38.90;50.10
2647;DHT22;1333;50.958;6.770;2023-08-20T08:02:15;38.70;51.00
2647;DHT22;1333;50.958;6.770;2023-08-20T08:04:41;38.30;50.70
2647;DHT22;1333;50.958;6.770;2023-08-20T08:07:07;37.90;51.60
2647;DHT22;1333;50.958;6.770;2023-08-20T08:09:33;37.40;52.10
2647;DHT22;1333;50.958;6.770;2023-08-20T08:11:59;36.90;52.90
2647;DHT22;1333;50.958;6.770;2023-08-20T08:14:25;36.30;54.50
2647;DHT22;1333;50.958;6.770;2023-08-20T08:16:51;36.00;55.70
2647;DHT22;1333;50.958;6.770;2023-08-20T08:19:17;35.70;56.70
2647;DHT22;1333;50.958;6.770;2023-08-20T08:21:43;35.60;57.70
2647;DHT22;1333;50.958;6.770;2023-08-20T08:24:11;35.60;59.00
2647;DHT22;1333;50.958;6.770;2023-08-20T08:26:36;35.70;59.60
2647;DHT22;1333;50.958;6.770;2023-08-20T08:29:06;36.10;60.20
2647;DHT22;1333;50.958;6.770;2023-08-20T08:31:33;37.70;59.60
2647;DHT22;1333;50.958;6.770;2023-08-20T08:33:58;39.70;55.70
2647;DHT22;1333;50.958;6.770;2023-08-20T08:36:24;41.70;52.90
2647;DHT22;1333;50.958;6.770;2023-08-20T08:38:51;43.60;48.50
2647;DHT22;1333;50.958;6.770;2023-08-20T08:41:17;45.40;45.80
2647;DHT22;1333;50.958;6.770;2023-08-20T08:43:43;47.00;43.30
2647;DHT22;1333;50.958;6.770;2023-08-20T08:46:13;48.20;39.80
2647;DHT22;1333;50.958;6.770;2023-08-20T08:48:41;49.40;37.40
2647;DHT22;1333;50.958;6.770;2023-08-20T08:51:08;50.50;35.30
2647;DHT22;1333;50.958;6.770;2023-08-20T08:53:33;51.30;34.30
2647;DHT22;1333;50.958;6.770;2023-08-20T08:56:00;52.40;33.70
2647;DHT22;1333;50.958;6.770;2023-08-20T08:58:26;53.30;31.50
2647;DHT22;1333;50.958;6.770;2023-08-20T09:00:52;54.10;30.30
2647;DHT22;1333;50.958;6.770;2023-08-20T09:03:18;54.80;29.90
2647;DHT22;1333;50.958;6.770;2023-08-20T09:05:48;55.50;29.30
2647;DHT22;1333;50.958;6.770;2023-08-20T09:10:49;56.70;27.20
2647;DHT22;1333;50.958;6.770;2023-08-20T09:13:15;57.40;27.10
2647;DHT22;1333;50.958;6.770;2023-08-20T09:15:40;57.90;26.60
2647;DHT22;1333;50.958;6.770;2023-08-20T09:18:09;58.40;26.10
2647;DHT22;1333;50.958;6.770;2023-08-20T09:20:36;59.00;25.40
2647;DHT22;1333;50.958;6.770;2023-08-20T09:23:02;59.70;25.00
2647;DHT22;1333;50.958;6.770;2023-08-20T09:25:28;60.20;24.70
2647;DHT22;1333;50.958;6.770;2023-08-20T09:27:54;60.40;24.30
2647;DHT22;1333;50.958;6.770;2023-08-20T09:30:20;60.50;24.50
2647;DHT22;1333;50.958;6.770;2023-08-20T09:33:11;60.70;23.80
2647;DHT22;1333;50.958;6.770;2023-08-20T09:35:37;60.80;23.80
2647;DHT22;1333;50.958;6.770;2023-08-20T09:38:03;61.10;23.40
2647;DHT22;1333;50.958;6.770;2023-08-20T09:40:30;61.30;23.60
2647;DHT22;1333;50.958;6.770;2023-08-20T09:42:56;61.60;23.00
2647;DHT22;1333;50.958;6.770;2023-08-20T09:45:24;61.80;22.80
2647;DHT22;1333;50.958;6.770;2023-08-20T09:47:54;61.40;22.40
2647;DHT22;1333;50.958;6.770;2023-08-20T09:50:22;60.30;22.80
2647;DHT22;1333;50.958;6.770;2023-08-20T09:53:01;58.90;22.60
2647;DHT22;1333;50.958;6.770;2023-08-20T09:55:32;58.40;23.70
2647;DHT22;1333;50.958;6.770;2023-08-20T09:58:01;58.80;24.20
2647;DHT22;1333;50.958;6.770;2023-08-20T10:00:28;59.40;23.60
2647;DHT22;1333;50.958;6.770;2023-08-20T10:02:54;59.30;21.50
2647;DHT22;1333;50.958;6.770;2023-08-20T10:05:19;59.60;22.50
2647;DHT22;1333;50.958;6.770;2023-08-20T10:07:47;60.50;22.80
2647;DHT22;1333;50.958;6.770;2023-08-20T10:10:13;60.90;22.50
2647;DHT22;1333;50.958;6.770;2023-08-20T10:12:40;59.60;22.30
2647;DHT22;1333;50.958;6.770;2023-08-20T10:15:10;58.90;23.00
2647;DHT22;1333;50.958;6.770;2023-08-20T10:17:37;57.40;22.70
2647;DHT22;1333;50.958;6.770;2023-08-20T10:20:04;55.90;23.00
2647;DHT22;1333;50.958;6.770;2023-08-20T10:22:37;54.50;23.70
2647;DHT22;1333;50.958;6.770;2023-08-20T10:25:26;53.10;24.50
2647;DHT22;1333;50.958;6.770;2023-08-20T10:27:52;51.80;25.40
2647;DHT22;1333;50.958;6.770;2023-08-20T10:30:19;50.80;26.10
2647;DHT22;1333;50.958;6.770;2023-08-20T10:32:48;51.40;27.00
2647;DHT22;1333;50.958;6.770;2023-08-20T10:35:31;52.50;25.20
2647;DHT22;1333;50.958;6.770;2023-08-20T10:38:15;54.40;26.00
2647;DHT22;1333;50.958;6.770;2023-08-20T10:43:32;57.60;23.30
2647;DHT22;1333;50.958;6.770;2023-08-20T10:46:27;57.20;22.50
2647;DHT22;1333;50.958;6.770;2023-08-20T10:49:00;55.90;23.30
2647;DHT22;1333;50.958;6.770;2023-08-20T10:51:32;54.00;24.00
2647;DHT22;1333;50.958;6.770;2023-08-20T10:56:46;50.40;25.60
2647;DHT22;1333;50.958;6.770;2023-08-20T11:01:40;47.90;27.80
2647;DHT22;1333;50.958;6.770;2023-08-20T11:04:09;48.60;28.60
2647;DHT22;1333;50.958;6.770;2023-08-20T11:06:34;50.10;27.90
2647;DHT22;1333;50.958;6.770;2023-08-20T11:09:01;49.70;26.10
2647;DHT22;1333;50.958;6.770;2023-08-20T11:11:29;49.10;27.10
2647;DHT22;1333;50.958;6.770;2023-08-20T11:13:54;50.60;28.00
2647;DHT22;1333;50.958;6.770;2023-08-20T11:16:20;52.60;26.70
2647;DHT22;1333;50.958;6.770;2023-08-20T11:18:46;54.00;25.20
2647;DHT22;1333;50.958;6.770;2023-08-20T11:21:12;55.40;25.20
2647;DHT22;1333;50.958;6.770;2023-08-20T11:23:38;56.80;24.50
2647;DHT22;1333;50.958;6.770;2023-08-20T11:26:07;58.10;24.20
2647;DHT22;1333;50.958;6.770;2023-08-20T11:28:33;59.20;23.80
2647;DHT22;1333;50.958;6.770;2023-08-20T11:30:58;59.80;23.20
2647;DHT22;1333;50.958;6.770;2023-08-20T11:33:25;60.10;22.20
2647;DHT22;1333;50.958;6.770;2023-08-20T11:35:51;60.40;22.60
2647;DHT22;1333;50.958;6.770;2023-08-20T11:38:17;60.60;22.40
2647;DHT22;1333;50.958;6.770;2023-08-20T11:40:43;60.50;22.30
2647;DHT22;1333;50.958;6.770;2023-08-20T11:43:09;60.50;22.30
2647;DHT22;1333;50.958;6.770;2023-08-20T11:45:44;60.90;22.00
2647;DHT22;1333;50.958;6.770;2023-08-20T11:48:10;61.30;21.80
2647;DHT22;1333;50.958;6.770;2023-08-20T11:50:35;61.70;21.50
2647;DHT22;1333;50.958;6.770;2023-08-20T11:53:02;61.60;21.00
2647;DHT22;1333;50.958;6.770;2023-08-20T11:55:29;59.50;21.20
2647;DHT22;1333;50.958;6.770;2023-08-20T11:57:55;57.50;22.00
2647;DHT22;1333;50.958;6.770;2023-08-20T12:00:25;57.20;22.60
2647;DHT22;1333;50.958;6.770;2023-08-20T12:02:55;57.20;22.60
2647;DHT22;1333;50.958;6.770;2023-08-20T12:05:22;56.30;22.80
2647;DHT22;1333;50.958;6.770;2023-08-20T12:08:02;55.30;23.70
2647;DHT22;1333;50.958;6.770;2023-08-20T12:10:30;55.80;23.90
2647;DHT22;1333;50.958;6.770;2023-08-20T12:12:57;56.70;23.60
2647;DHT22;1333;50.958;6.770;2023-08-20T12:15:24;57.70;23.20
2647;DHT22;1333;50.958;6.770;2023-08-20T12:17:59;58.40;22.80
2647;DHT22;1333;50.958;6.770;2023-08-20T12:20:30;59.00;22.40
2647;DHT22;1333;50.958;6.770;2023-08-20T12:22:58;59.10;21.20
2647;DHT22;1333;50.958;6.770;2023-08-20T12:25:25;58.50;21.70
2647;DHT22;1333;50.958;6.770;2023-08-20T12:27:51;56.70;22.40
2647;DHT22;1333;50.958;6.770;2023-08-20T12:30:16;54.70;23.10
2647;DHT22;1333;50.958;6.770;2023-08-20T12:32:42;54.00;23.80
2647;DHT22;1333;50.958;6.770;2023-08-20T12:35:07;54.70;24.20
2647;DHT22;1333;50.958;6.770;2023-08-20T12:37:33;55.50;24.00
2647;DHT22;1333;50.958;6.770;2023-08-20T12:39:59;56.40;23.80
2647;DHT22;1333;50.958;6.770;2023-08-20T12:42:24;57.20;23.60
2647;DHT22;1333;50.958;6.770;2023-08-20T12:44:50;58.00;23.10
2647;DHT22;1333;50.958;6.770;2023-08-20T12:47:16;58.60;22.80
2647;DHT22;1333;50.958;6.770;2023-08-20T12:49:41;59.00;22.40
2647;DHT22;1333;50.958;6.770;2023-08-20T12:52:07;59.10;22.00
2647;DHT22;1333;50.958;6.770;2023-08-20T12:54:32;57.60;22.00
2647;DHT22;1333;50.958;6.770;2023-08-20T12:56:58;57.10;22.30
2647;DHT22;1333;50.958;6.770;2023-08-20T12:59:23;57.20;22.60
2647;DHT22;1333;50.958;6.770;2023-08-20T13:01:49;57.40;22.10
2647;DHT22;1333;50.958;6.770;2023-08-20T13:04:15;57.80;22.60
2647;DHT22;1333;50.958;6.770;2023-08-20T13:06:41;58.10;22.40
2647;DHT22;1333;50.958;6.770;2023-08-20T13:09:07;58.30;21.70
2647;DHT22;1333;50.958;6.770;2023-08-20T13:11:34;58.40;21.80
2647;DHT22;1333;50.958;6.770;2023-08-20T13:14:01;58.40;22.10
2647;DHT22;1333;50.958;6.770;2023-08-20T13:16:26;58.40;22.00
2647;DHT22;1333;50.958;6.770;2023-08-20T13:18:52;58.40;22.10
2647;DHT22;1333;50.958;6.770;2023-08-20T13:21:18;58.50;22.60
2647;DHT22;1333;50.958;6.770;2023-08-20T13:23:43;58.50;22.20
2647;DHT22;1333;50.958;6.770;2023-08-20T13:26:09;58.40;21.90
2647;DHT22;1333;50.958;6.770;2023-08-20T13:28:35;58.30;22.20
2647;DHT22;1333;50.958;6.770;2023-08-20T13:31:01;58.20;21.80
2647;DHT22;1333;50.958;6.770;2023-08-20T13:33:26;58.30;22.30
2647;DHT22;1333;50.958;6.770;2023-08-20T13:35:52;58.20;22.10
2647;DHT22;1333;50.958;6.770;2023-08-20T13:38:18;57.60;21.90
2647;DHT22;1333;50.958;6.770;2023-08-20T13:40:45;56.10;21.70
2647;DHT22;1333;50.958;6.770;2023-08-20T13:43:11;53.70;22.20
2647;DHT22;1333;50.958;6.770;2023-08-20T13:45:36;52.60;23.30
2647;DHT22;1333;50.958;6.770;2023-08-20T13:48:02;52.50;24.20
2647;DHT22;1333;50.958;6.770;2023-08-20T13:50:28;52.80;24.10
2647;DHT22;1333;50.958;6.770;2023-08-20T13:52:54;53.00;24.00
2647;DHT22;1333;50.958;6.770;2023-08-20T13:55:20;53.40;23.90
2647;DHT22;1333;50.958;6.770;2023-08-20T13:57:46;53.50;23.90
2647;DHT22;1333;50.958;6.770;2023-08-20T14:00:12;53.70;24.10
2647;DHT22;1333;50.958;6.770;2023-08-20T14:02:39;53.30;23.70
2647;DHT22;1333;50.958;6.770;2023-08-20T14:05:05;51.70;24.10
2647;DHT22;1333;50.958;6.770;2023-08-20T14:07:30;49.60;24.80
2647;DHT22;1333;50.958;6.770;2023-08-20T14:09:58;47.60;25.90
2647;DHT22;1333;50.958;6.770;2023-08-20T14:12:23;46.10;27.30
2647;DHT22;1333;50.958;6.770;2023-08-20T14:14:49;45.80;28.20
2647;DHT22;1333;50.958;6.770;2023-08-20T14:17:16;45.90;28.50
2647;DHT22;1333;50.958;6.770;2023-08-20T14:19:41;45.80;28.90
2647;DHT22;1333;50.958;6.770;2023-08-20T14:22:07;45.40;28.90
2647;DHT22;1333;50.958;6.770;2023-08-20T14:24:32;44.70;29.40
2647;DHT22;1333;50.958;6.770;2023-08-20T14:26:58;43.90;29.90
2647;DHT22;1333;50.958;6.770;2023-08-20T14:29:23;42.90;30.40
2647;DHT22;1333;50.958;6.770;2023-08-20T14:31:49;42.10;31.40
2647;DHT22;1333;50.958;6.770;2023-08-20T14:34:14;41.30;32.70
2647;DHT22;1333;50.958;6.770;2023-08-20T14:36:40;40.60;33.60
2647;DHT22;1333;50.958;6.770;2023-08-20T14:39:05;39.90;34.50
2647;DHT22;1333;50.958;6.770;2023-08-20T14:41:31;39.40;35.40
2647;DHT22;1333;50.958;6.770;2023-08-20T14:43:57;38.80;35.90
2647;DHT22;1333;50.958;6.770;2023-08-20T14:46:22;38.20;36.50
2647;DHT22;1333;50.958;6.770;2023-08-20T14:48:48;37.70;37.40
2647;DHT22;1333;50.958;6.770;2023-08-20T14:51:13;37.20;38.10
2647;DHT22;1333;50.958;6.770;2023-08-20T14:53:39;36.80;38.90
2647;DHT22;1333;50.958;6.770;2023-08-20T14:56:04;36.50;39.50
2647;DHT22;1333;50.958;6.770;2023-08-20T14:58:30;36.10;39.90
2647;DHT22;1333;50.958;6.770;2023-08-20T15:00:55;35.80;40.80
2647;DHT22;1333;50.958;6.770;2023-08-20T15:03:21;35.50;41.50
2647;DHT22;1333;50.958;6.770;2023-08-20T15:05:47;35.20;42.20
2647;DHT22;1333;50.958;6.770;2023-08-20T15:08:13;35.00;42.40
2647;DHT22;1333;50.958;6.770;2023-08-20T15:10:39;34.80;42.60
2647;DHT22;1333;50.958;6.770;2023-08-20T15:13:04;34.70;43.00
2647;DHT22;1333;50.958;6.770;2023-08-20T15:15:31;34.50;43.20
2647;DHT22;1333;50.958;6.770;2023-08-20T15:17:57;34.40;43.40
2647;DHT22;1333;50.958;6.770;2023-08-20T15:20:23;34.20;43.40
2647;DHT22;1333;50.958;6.770;2023-08-20T15:22:48;33.90;43.60
2647;DHT22;1333;50.958;6.770;2023-08-20T15:25:14;33.70;44.20
2647;DHT22;1333;50.958;6.770;2023-08-20T15:27:40;33.40;44.80
2647;DHT22;1333;50.958;6.770;2023-08-20T15:30:07;33.20;45.30
2647;DHT22;1333;50.958;6.770;2023-08-20T15:32:33;33.00;45.70
2647;DHT22;1333;50.958;6.770;2023-08-20T15:34:58;32.70;46.60
2647;DHT22;1333;50.958;6.770;2023-08-20T15:37:24;32.60;46.80
2647;DHT22;1333;50.958;6.770;2023-08-20T15:39:50;32.50;47.10
2647;DHT22;1333;50.958;6.770;2023-08-20T15:42:16;32.50;47.00
2647;DHT22;1333;50.958;6.770;2023-08-20T15:44:41;32.40;47.20
2647;DHT22;1333;50.958;6.770;2023-08-20T15:47:07;32.40;47.60
2647;DHT22;1333;50.958;6.770;2023-08-20T15:49:33;32.40;48.40
2647;DHT22;1333;50.958;6.770;2023-08-20T15:52:00;32.40;48.80
2647;DHT22;1333;50.958;6.770;2023-08-20T15:54:25;32.40;48.70
2647;DHT22;1333;50.958;6.770;2023-08-20T15:56:51;32.30;48.30
2647;DHT22;1333;50.958;6.770;2023-08-20T15:59:17;32.20;48.30
2647;DHT22;1333;50.958;6.770;2023-08-20T16:01:43;32.10;49.00
2647;DHT22;1333;50.958;6.770;2023-08-20T16:04:08;31.90;49.20
2647;DHT22;1333;50.958;6.770;2023-08-20T16:06:34;31.70;49.60
2647;DHT22;1333;50.958;6.770;2023-08-20T16:08:59;31.50;50.10
2647;DHT22;1333;50.958;6.770;2023-08-20T16:11:25;31.40;50.70
2647;DHT22;1333;50.958;6.770;2023-08-20T16:13:51;31.10;51.50